PWSweather.com
Personal Weather Stations
Station Observations
TARRYHILL
Tarrytown, NY 10591

Tarrytown, NY 10591

Lat: 41.05185, Lon: -73.85296

Elevation: 341

Station Type: Davis Vantage Vue

www.tarrytownnyweather.com

High Low Average
Temperature 32.9°F0.5°F 28.5°F-1.9°F 30.2°F-1.0°F
Dew Point 29.7°F-1.3°F 24.2°F-4.3°F 27.3°F-2.6°F
Winds 2.4 mph NW3.9 mph NW Calm Calm 0.6 mph 1.0 mph
Wind Gusts 7.0 mph11.3 mph -- 1.8 mph2.9 mph
Humidity 93% 82% 89%
Pressure 30.34 in1027.40 in 30.26 in1024.70 in -
Precipitation 0.00 in0.00 in - -
Hour Temp Dew Point Humidity Winds Wind Gusts Pressure Precip Precip Rate Daily Precip Total
12:00 AM 29.1°F-1.6°C 24.3°F-4.3°C 82% Calm Calm -- 30.27 in1025.1 mb 0.00 in0.0 mm 0.00 in/hr0.0 mm/hr 0.00 in0.0 mm
12:10 AM 29.0°F-1.7°C 24.2°F-4.3°C 82% 0.1 mph SW0.2 kmh SW 1.0 mph1.6 kmh 30.27 in1025.1 mb 0.00 in0.0 mm 0.00 in/hr0.0 mm/hr 0.00 in0.0 mm
12:20 AM 29.1°F-1.6°C 24.6°F-4.1°C 83% Calm Calm 1.0 mph1.6 kmh 30.27 in1025.1 mb 0.00 in0.0 mm 0.00 in/hr0.0 mm/hr 0.00 in0.0 mm
12:30 AM 29.0°F-1.7°C 24.8°F-4.0°C 84% 0.1 mph N0.2 kmh N 1.0 mph1.6 kmh 30.27 in1025.1 mb 0.00 in0.0 mm 0.00 in/hr0.0 mm/hr 0.00 in0.0 mm
12:40 AM 29.0°F-1.7°C 25.1°F-3.8°C 85% 0.2 mph NNW0.3 kmh NNW 1.0 mph1.6 kmh 30.27 in1025.1 mb 0.00 in0.0 mm 0.00 in/hr0.0 mm/hr 0.00 in0.0 mm
12:50 AM 29.0°F-1.7°C 25.3°F-3.7°C 86% Calm Calm -- 30.27 in1025.1 mb 0.00 in0.0 mm 0.00 in/hr0.0 mm/hr 0.00 in0.0 mm
01:00 AM 28.8°F-1.8°C 25.4°F-3.7°C 87% 0.2 mph NW0.3 kmh NW 1.0 mph1.6 kmh 30.28 in1025.4 mb 0.00 in0.0 mm 0.00 in/hr0.0 mm/hr 0.00 in0.0 mm
01:10 AM 28.7°F-1.8°C 25.3°F-3.7°C 87% 0.9 mph NW1.4 kmh NW 2.0 mph3.2 kmh 30.27 in1025.1 mb 0.00 in0.0 mm 0.00 in/hr0.0 mm/hr 0.00 in0.0 mm
01:20 AM 28.7°F-1.8°C 25.6°F-3.6°C 88% 0.5 mph WNW0.8 kmh WNW 3.0 mph4.8 kmh 30.27 in1025.1 mb 0.00 in0.0 mm 0.00 in/hr0.0 mm/hr 0.00 in0.0 mm
01:30 AM 28.7°F-1.8°C 25.6°F-3.6°C 88% 0.3 mph NW0.5 kmh NW 2.0 mph3.2 kmh 30.27 in1025.1 mb 0.00 in0.0 mm 0.00 in/hr0.0 mm/hr 0.00 in0.0 mm
01:40 AM 28.7°F-1.8°C 25.6°F-3.6°C 88% 0.3 mph NW0.5 kmh NW 2.0 mph3.2 kmh 30.27 in1025.1 mb 0.00 in0.0 mm 0.00 in/hr0.0 mm/hr 0.00 in0.0 mm
01:50 AM 28.8°F-1.8°C 25.7°F-3.5°C 88% 0.4 mph WNW0.6 kmh WNW 1.0 mph1.6 kmh 30.27 in1025.1 mb 0.00 in0.0 mm 0.00 in/hr0.0 mm/hr 0.00 in0.0 mm
02:00 AM 28.8°F-1.8°C 25.4°F-3.7°C 87% 1.2 mph ENE1.9 kmh ENE 4.0 mph6.4 kmh 30.27 in1025.1 mb 0.00 in0.0 mm 0.00 in/hr0.0 mm/hr 0.00 in0.0 mm
02:10 AM 28.7°F-1.8°C 25.3°F-3.7°C 87% Calm Calm -- 30.27 in1025.1 mb 0.00 in0.0 mm 0.00 in/hr0.0 mm/hr 0.00 in0.0 mm
02:20 AM 28.7°F-1.8°C 25.3°F-3.7°C 87% 0.6 mph NW1.0 kmh NW 1.0 mph1.6 kmh 30.27 in1025.1 mb 0.00 in0.0 mm 0.00 in/hr0.0 mm/hr 0.00 in0.0 mm
02:30 AM 28.7°F-1.8°C 25.0°F-3.9°C 86% 0.1 mph NW0.2 kmh NW 1.0 mph1.6 kmh 30.27 in1025.1 mb 0.00 in0.0 mm 0.00 in/hr0.0 mm/hr 0.00 in0.0 mm
02:40 AM 28.7°F-1.8°C 25.1°F-3.8°C 86% Calm Calm 1.0 mph1.6 kmh 30.27 in1025.1 mb 0.00 in0.0 mm 0.00 in/hr0.0 mm/hr 0.00 in0.0 mm
02:50 AM 28.8°F-1.8°C 25.1°F-3.8°C 86% 0.1 mph N0.2 kmh N 1.0 mph1.6 kmh 30.27 in1025.1 mb 0.00 in0.0 mm 0.00 in/hr0.0 mm/hr 0.00 in0.0 mm
03:00 AM 28.8°F-1.8°C 25.1°F-3.8°C 86% 0.2 mph WNW0.3 kmh WNW 1.0 mph1.6 kmh 30.27 in1025.1 mb 0.00 in0.0 mm 0.00 in/hr0.0 mm/hr 0.00 in0.0 mm
03:10 AM 28.8°F-1.8°C 25.1°F-3.8°C 86% 0.1 mph NW0.2 kmh NW 1.0 mph1.6 kmh 30.27 in1025.1 mb 0.00 in0.0 mm 0.00 in/hr0.0 mm/hr 0.00 in0.0 mm
03:20 AM 28.8°F-1.8°C 24.8°F-4.0°C 85% 0.4 mph NW0.6 kmh NW 1.0 mph1.6 kmh 30.27 in1025.1 mb 0.00 in0.0 mm 0.00 in/hr0.0 mm/hr 0.00 in0.0 mm
03:30 AM 28.9°F-1.7°C 25.2°F-3.8°C 86% Calm Calm -- 30.28 in1025.4 mb 0.00 in0.0 mm 0.00 in/hr0.0 mm/hr 0.00 in0.0 mm
03:40 AM 28.9°F-1.7°C 25.2°F-3.8°C 86% Calm Calm 2.0 mph3.2 kmh 30.27 in1025.1 mb 0.00 in0.0 mm 0.00 in/hr0.0 mm/hr 0.00 in0.0 mm
03:50 AM 28.9°F-1.7°C 25.2°F-3.8°C 86% 1.0 mph NW1.6 kmh NW 2.0 mph3.2 kmh 30.27 in1025.1 mb 0.00 in0.0 mm 0.00 in/hr0.0 mm/hr 0.00 in0.0 mm
04:00 AM 28.9°F-1.7°C 25.2°F-3.8°C 86% 0.8 mph NNW1.3 kmh NNW 2.0 mph3.2 kmh 30.27 in1025.1 mb 0.00 in0.0 mm 0.00 in/hr0.0 mm/hr 0.00 in0.0 mm
04:10 AM 28.9°F-1.7°C 25.2°F-3.8°C 86% 0.6 mph NNW1.0 kmh NNW 2.0 mph3.2 kmh 30.27 in1025.1 mb 0.00 in0.0 mm 0.00 in/hr0.0 mm/hr 0.00 in0.0 mm
04:20 AM 28.8°F-1.8°C 25.2°F-3.8°C 86% 1.1 mph NW1.8 kmh NW 2.0 mph3.2 kmh 30.27 in1025.1 mb 0.00 in0.0 mm 0.00 in/hr0.0 mm/hr 0.00 in0.0 mm
04:30 AM 28.7°F-1.8°C 25.1°F-3.8°C 86% 2.0 mph N3.2 kmh N 3.0 mph4.8 kmh 30.27 in1025.1 mb 0.00 in0.0 mm 0.00 in/hr0.0 mm/hr 0.00 in0.0 mm
04:40 AM 28.6°F-1.9°C 25.2°F-3.8°C 87% 0.4 mph NNE0.6 kmh NNE 1.0 mph1.6 kmh 30.27 in1025.1 mb 0.00 in0.0 mm 0.00 in/hr0.0 mm/hr 0.00 in0.0 mm
04:50 AM 28.6°F-1.9°C 25.2°F-3.8°C 87% 0.8 mph NE1.3 kmh NE 1.0 mph1.6 kmh 30.26 in1024.7 mb 0.00 in0.0 mm 0.00 in/hr0.0 mm/hr 0.00 in0.0 mm
05:00 AM 28.6°F-1.9°C 25.2°F-3.8°C 87% 0.2 mph NNE0.3 kmh NNE 1.0 mph1.6 kmh 30.27 in1025.1 mb 0.00 in0.0 mm 0.00 in/hr0.0 mm/hr 0.00 in0.0 mm
05:10 AM 28.6°F-1.9°C 25.2°F-3.8°C 87% 1.2 mph NW1.9 kmh NW 2.0 mph3.2 kmh 30.27 in1025.1 mb 0.00 in0.0 mm 0.00 in/hr0.0 mm/hr 0.00 in0.0 mm
05:20 AM 28.6°F-1.9°C 25.2°F-3.8°C 87% 0.6 mph NW1.0 kmh NW 2.0 mph3.2 kmh 30.27 in1025.1 mb 0.00 in0.0 mm 0.00 in/hr0.0 mm/hr 0.00 in0.0 mm
05:30 AM 28.6°F-1.9°C 24.9°F-3.9°C 86% 0.2 mph N0.3 kmh N -- 30.27 in1025.1 mb 0.00 in0.0 mm 0.00 in/hr0.0 mm/hr 0.00 in0.0 mm
05:40 AM 28.6°F-1.9°C 24.9°F-3.9°C 86% 0.9 mph N1.4 kmh N 1.0 mph1.6 kmh 30.27 in1025.1 mb 0.00 in0.0 mm 0.00 in/hr0.0 mm/hr 0.00 in0.0 mm
05:50 AM 28.5°F-1.9°C 24.9°F-3.9°C 86% 0.6 mph NNE1.0 kmh NNE 3.0 mph4.8 kmh 30.27 in1025.1 mb 0.00 in0.0 mm 0.00 in/hr0.0 mm/hr 0.00 in0.0 mm
06:00 AM 28.6°F-1.9°C 25.2°F-3.8°C 87% Calm Calm 1.0 mph1.6 kmh 30.28 in1025.4 mb 0.00 in0.0 mm 0.00 in/hr0.0 mm/hr 0.00 in0.0 mm
06:10 AM 28.5°F-1.9°C 24.8°F-4.0°C 86% 0.9 mph NW1.4 kmh NW 3.0 mph4.8 kmh 30.28 in1025.4 mb 0.00 in0.0 mm 0.00 in/hr0.0 mm/hr 0.00 in0.0 mm
06:20 AM 28.5°F-1.9°C 24.8°F-4.0°C 86% 0.6 mph WNW1.0 kmh WNW 1.0 mph1.6 kmh 30.27 in1025.1 mb 0.00 in0.0 mm 0.00 in/hr0.0 mm/hr 0.00 in0.0 mm
06:30 AM 28.5°F-1.9°C 24.8°F-4.0°C 86% 0.9 mph NW1.4 kmh NW 5.0 mph8.0 kmh 30.29 in1025.7 mb 0.00 in0.0 mm 0.00 in/hr0.0 mm/hr 0.00 in0.0 mm
06:40 AM 28.6°F-1.9°C 24.9°F-3.9°C 86% 0.3 mph NW0.5 kmh NW 2.0 mph3.2 kmh 30.29 in1025.7 mb 0.00 in0.0 mm 0.00 in/hr0.0 mm/hr 0.00 in0.0 mm
06:50 AM 28.7°F-1.8°C 25.0°F-3.9°C 86% 0.5 mph NW0.8 kmh NW 2.0 mph3.2 kmh 30.29 in1025.7 mb 0.00 in0.0 mm 0.00 in/hr0.0 mm/hr 0.00 in0.0 mm
07:00 AM 28.6°F-1.9°C 25.0°F-3.9°C 86% Calm Calm -- 30.29 in1025.7 mb 0.00 in0.0 mm 0.00 in/hr0.0 mm/hr 0.00 in0.0 mm
07:10 AM 28.6°F-1.9°C 25.2°F-3.8°C 87% 0.7 mph NNW1.1 kmh NNW 3.0 mph4.8 kmh 30.29 in1025.7 mb 0.00 in0.0 mm 0.00 in/hr0.0 mm/hr 0.00 in0.0 mm
07:20 AM 28.6°F-1.9°C 25.3°F-3.7°C 87% 0.7 mph NNE1.1 kmh NNE 2.0 mph3.2 kmh 30.29 in1025.7 mb 0.00 in0.0 mm 0.00 in/hr0.0 mm/hr 0.00 in0.0 mm
07:30 AM 28.7°F-1.8°C 25.3°F-3.7°C 87% Calm Calm -- 30.29 in1025.7 mb 0.00 in0.0 mm 0.00 in/hr0.0 mm/hr 0.00 in0.0 mm
07:40 AM 28.8°F-1.8°C 25.4°F-3.7°C 87% 0.6 mph NNW1.0 kmh NNW 2.0 mph3.2 kmh 30.29 in1025.7 mb 0.00 in0.0 mm 0.00 in/hr0.0 mm/hr 0.00 in0.0 mm
07:50 AM 28.8°F-1.8°C 25.4°F-3.7°C 87% 1.1 mph NW1.8 kmh NW 3.0 mph4.8 kmh 30.29 in1025.7 mb 0.00 in0.0 mm 0.00 in/hr0.0 mm/hr 0.00 in0.0 mm
08:01 AM 28.9°F-1.7°C 25.5°F-3.6°C 87% 0.4 mph NNE0.6 kmh NNE 1.0 mph1.6 kmh 30.29 in1025.7 mb 0.00 in0.0 mm 0.00 in/hr0.0 mm/hr 0.00 in0.0 mm
08:10 AM 28.8°F-1.8°C 25.4°F-3.7°C 87% 1.6 mph NNW2.6 kmh NNW 3.0 mph4.8 kmh 30.30 in1026.1 mb 0.00 in0.0 mm 0.00 in/hr0.0 mm/hr 0.00 in0.0 mm
08:20 AM 28.8°F-1.8°C 25.4°F-3.7°C 87% 1.1 mph ENE1.8 kmh ENE 2.0 mph3.2 kmh 30.29 in1025.7 mb 0.00 in0.0 mm 0.00 in/hr0.0 mm/hr 0.00 in0.0 mm
08:30 AM 28.8°F-1.8°C 25.1°F-3.8°C 86% 1.4 mph NW2.3 kmh NW 2.0 mph3.2 kmh 30.29 in1025.7 mb 0.00 in0.0 mm 0.00 in/hr0.0 mm/hr 0.00 in0.0 mm
08:40 AM 28.8°F-1.8°C 25.1°F-3.8°C 86% 0.8 mph WSW1.3 kmh WSW 3.0 mph4.8 kmh 30.29 in1025.7 mb 0.00 in0.0 mm 0.00 in/hr0.0 mm/hr 0.00 in0.0 mm
08:50 AM 28.9°F-1.7°C 25.2°F-3.8°C 86% 0.1 mph NNE0.2 kmh NNE 1.0 mph1.6 kmh 30.29 in1025.7 mb 0.00 in0.0 mm 0.00 in/hr0.0 mm/hr 0.00 in0.0 mm
09:00 AM 29.0°F-1.7°C 25.3°F-3.7°C 86% 0.3 mph NW0.5 kmh NW 1.0 mph1.6 kmh 30.30 in1026.1 mb 0.00 in0.0 mm 0.00 in/hr0.0 mm/hr 0.00 in0.0 mm
09:10 AM 29.2°F-1.6°C 25.5°F-3.6°C 86% 0.7 mph NW1.1 kmh NW 1.0 mph1.6 kmh 30.30 in1026.1 mb 0.00 in0.0 mm 0.00 in/hr0.0 mm/hr 0.00 in0.0 mm
09:20 AM 29.5°F-1.4°C 25.5°F-3.6°C 85% 0.9 mph W1.4 kmh W 2.0 mph3.2 kmh 30.30 in1026.1 mb 0.00 in0.0 mm 0.00 in/hr0.0 mm/hr 0.00 in0.0 mm
09:30 AM 29.8°F-1.2°C 26.1°F-3.3°C 86% 0.1 mph WSW0.2 kmh WSW 1.0 mph1.6 kmh 30.30 in1026.1 mb 0.00 in0.0 mm 0.00 in/hr0.0 mm/hr 0.00 in0.0 mm
09:40 AM 29.8°F-1.2°C 25.8°F-3.4°C 85% 0.4 mph NW0.6 kmh NW 2.0 mph3.2 kmh 30.31 in1026.4 mb 0.00 in0.0 mm 0.00 in/hr0.0 mm/hr 0.00 in0.0 mm
09:50 AM 29.8°F-1.2°C 26.1°F-3.3°C 86% 1.2 mph NW1.9 kmh NW 4.0 mph6.4 kmh 30.31 in1026.4 mb 0.00 in0.0 mm 0.00 in/hr0.0 mm/hr 0.00 in0.0 mm
10:00 AM 29.8°F-1.2°C 26.1°F-3.3°C 86% 0.5 mph NW0.8 kmh NW 1.0 mph1.6 kmh 30.32 in1026.8 mb 0.00 in0.0 mm 0.00 in/hr0.0 mm/hr 0.00 in0.0 mm
10:10 AM 29.8°F-1.2°C 26.1°F-3.3°C 86% 0.9 mph NNW1.4 kmh NNW 1.0 mph1.6 kmh 30.32 in1026.8 mb 0.00 in0.0 mm 0.00 in/hr0.0 mm/hr 0.00 in0.0 mm
10:20 AM 29.8°F-1.2°C 26.4°F-3.1°C 87% 1.6 mph NW2.6 kmh NW 2.0 mph3.2 kmh 30.32 in1026.8 mb 0.00 in0.0 mm 0.00 in/hr0.0 mm/hr 0.00 in0.0 mm
10:30 AM 29.8°F-1.2°C 26.4°F-3.1°C 87% 1.3 mph NNW2.1 kmh NNW 5.0 mph8.0 kmh 30.32 in1026.8 mb 0.00 in0.0 mm 0.00 in/hr0.0 mm/hr 0.00 in0.0 mm
10:40 AM 29.9°F-1.2°C 26.5°F-3.1°C 87% 1.6 mph NW2.6 kmh NW 4.0 mph6.4 kmh 30.31 in1026.4 mb 0.00 in0.0 mm 0.00 in/hr0.0 mm/hr 0.00 in0.0 mm
10:50 AM 30.1°F-1.1°C 27.0°F-2.8°C 88% 1.2 mph ENE1.9 kmh ENE 2.0 mph3.2 kmh 30.31 in1026.4 mb 0.00 in0.0 mm 0.00 in/hr0.0 mm/hr 0.00 in0.0 mm
11:00 AM 30.0°F-1.1°C 27.2°F-2.7°C 89% 2.1 mph NE3.4 kmh NE 3.0 mph4.8 kmh 30.31 in1026.4 mb 0.00 in0.0 mm 0.00 in/hr0.0 mm/hr 0.00 in0.0 mm
11:10 AM 30.1°F-1.1°C 27.6°F-2.4°C 90% 0.3 mph NNW0.5 kmh NNW 1.0 mph1.6 kmh 30.30 in1026.1 mb 0.00 in0.0 mm 0.00 in/hr0.0 mm/hr 0.00 in0.0 mm
11:20 AM 30.2°F-1.0°C 27.3°F-2.6°C 89% 1.0 mph NW1.6 kmh NW 3.0 mph4.8 kmh 30.30 in1026.1 mb 0.00 in0.0 mm 0.00 in/hr0.0 mm/hr 0.00 in0.0 mm
11:30 AM 30.4°F-0.9°C 27.6°F-2.4°C 89% 0.6 mph N1.0 kmh N 2.0 mph3.2 kmh 30.30 in1026.1 mb 0.00 in0.0 mm 0.00 in/hr0.0 mm/hr 0.00 in0.0 mm
11:40 AM 30.6°F-0.8°C 27.5°F-2.5°C 88% 2.2 mph N3.5 kmh N 7.0 mph11.3 kmh 30.29 in1025.7 mb 0.00 in0.0 mm 0.00 in/hr0.0 mm/hr 0.00 in0.0 mm
11:50 AM 30.6°F-0.8°C 27.5°F-2.5°C 88% 0.2 mph NNE0.3 kmh NNE 3.0 mph4.8 kmh 30.29 in1025.7 mb 0.00 in0.0 mm 0.00 in/hr0.0 mm/hr 0.00 in0.0 mm
12:00 PM 30.6°F-0.8°C 27.7°F-2.4°C 89% 0.4 mph NW0.6 kmh NW 2.0 mph3.2 kmh 30.29 in1025.7 mb 0.00 in0.0 mm 0.00 in/hr0.0 mm/hr 0.00 in0.0 mm
12:10 PM 30.6°F-0.8°C 28.0°F-2.2°C 90% 0.4 mph NW0.6 kmh NW 2.0 mph3.2 kmh 30.29 in1025.7 mb 0.00 in0.0 mm 0.00 in/hr0.0 mm/hr 0.00 in0.0 mm
12:20 PM 30.5°F-0.8°C 28.2°F-2.1°C 91% 0.6 mph N1.0 kmh N 1.0 mph1.6 kmh 30.29 in1025.7 mb 0.00 in0.0 mm 0.00 in/hr0.0 mm/hr 0.00 in0.0 mm
12:30 PM 30.6°F-0.8°C 28.3°F-2.1°C 91% 0.7 mph NNW1.1 kmh NNW 2.0 mph3.2 kmh 30.29 in1025.7 mb 0.00 in0.0 mm 0.00 in/hr0.0 mm/hr 0.00 in0.0 mm
12:40 PM 30.6°F-0.8°C 28.3°F-2.1°C 91% 1.0 mph NW1.6 kmh NW 1.0 mph1.6 kmh 30.28 in1025.4 mb 0.00 in0.0 mm 0.00 in/hr0.0 mm/hr 0.00 in0.0 mm
12:50 PM 30.9°F-0.6°C 28.6°F-1.9°C 91% Calm Calm 1.0 mph1.6 kmh 30.28 in1025.4 mb 0.00 in0.0 mm 0.00 in/hr0.0 mm/hr 0.00 in0.0 mm
01:01 PM 30.8°F-0.7°C 28.5°F-1.9°C 91% 1.7 mph NW2.7 kmh NW 5.0 mph8.0 kmh 30.28 in1025.4 mb 0.00 in0.0 mm 0.00 in/hr0.0 mm/hr 0.00 in0.0 mm
01:10 PM 30.7°F-0.7°C 28.7°F-1.8°C 92% 0.5 mph ENE0.8 kmh ENE 1.0 mph1.6 kmh 30.28 in1025.4 mb 0.00 in0.0 mm 0.00 in/hr0.0 mm/hr 0.00 in0.0 mm
01:20 PM 30.9°F-0.6°C 28.9°F-1.7°C 92% 1.2 mph ENE1.9 kmh ENE 2.0 mph3.2 kmh 30.28 in1025.4 mb 0.00 in0.0 mm 0.00 in/hr0.0 mm/hr 0.00 in0.0 mm
01:30 PM 31.3°F-0.4°C 29.2°F-1.6°C 92% 2.0 mph NNW3.2 kmh NNW 5.0 mph8.0 kmh 30.28 in1025.4 mb 0.00 in0.0 mm 0.00 in/hr0.0 mm/hr 0.00 in0.0 mm
01:40 PM 31.7°F-0.2°C 29.4°F-1.4°C 91% 0.6 mph NW1.0 kmh NW 3.0 mph4.8 kmh 30.28 in1025.4 mb 0.00 in0.0 mm 0.00 in/hr0.0 mm/hr 0.00 in0.0 mm
01:50 PM 31.9°F-0.1°C 29.3°F-1.5°C 90% 0.7 mph NNE1.1 kmh NNE 2.0 mph3.2 kmh 30.28 in1025.4 mb 0.00 in0.0 mm 0.00 in/hr0.0 mm/hr 0.00 in0.0 mm
02:00 PM 32.0°F0.0°C 29.1°F-1.6°C 89% 1.5 mph NNW2.4 kmh NNW 6.0 mph9.7 kmh 30.28 in1025.4 mb 0.00 in0.0 mm 0.00 in/hr0.0 mm/hr 0.00 in0.0 mm
02:10 PM 32.0°F0.0°C 29.1°F-1.6°C 89% 1.6 mph W2.6 kmh W 3.0 mph4.8 kmh 30.28 in1025.4 mb 0.00 in0.0 mm 0.00 in/hr0.0 mm/hr 0.00 in0.0 mm
02:20 PM 32.1°F0.1°C 28.9°F-1.7°C 88% 0.3 mph WSW0.5 kmh WSW 1.0 mph1.6 kmh 30.27 in1025.1 mb 0.00 in0.0 mm 0.00 in/hr0.0 mm/hr 0.00 in0.0 mm
02:30 PM 32.5°F0.3°C 29.3°F-1.5°C 88% 1.2 mph NNW1.9 kmh NNW 4.0 mph6.4 kmh 30.27 in1025.1 mb 0.00 in0.0 mm 0.00 in/hr0.0 mm/hr 0.00 in0.0 mm
02:40 PM 32.4°F0.2°C 29.0°F-1.7°C 87% 0.9 mph NNE1.4 kmh NNE 1.0 mph1.6 kmh 30.28 in1025.4 mb 0.00 in0.0 mm 0.00 in/hr0.0 mm/hr 0.00 in0.0 mm
02:50 PM 32.6°F0.3°C 29.2°F-1.6°C 87% 2.0 mph NW3.2 kmh NW 3.0 mph4.8 kmh 30.28 in1025.4 mb 0.00 in0.0 mm 0.00 in/hr0.0 mm/hr 0.00 in0.0 mm
03:01 PM 32.7°F0.4°C 29.0°F-1.7°C 86% 0.4 mph NE0.6 kmh NE 1.0 mph1.6 kmh 30.28 in1025.4 mb 0.00 in0.0 mm 0.00 in/hr0.0 mm/hr 0.00 in0.0 mm
03:10 PM 32.9°F0.5°C 29.1°F-1.6°C 86% 0.4 mph NW0.6 kmh NW 1.0 mph1.6 kmh 30.28 in1025.4 mb 0.00 in0.0 mm 0.00 in/hr0.0 mm/hr 0.00 in0.0 mm
03:20 PM 32.9°F0.5°C 29.2°F-1.6°C 86% 0.1 mph N0.2 kmh N 1.0 mph1.6 kmh 30.28 in1025.4 mb 0.00 in0.0 mm 0.00 in/hr0.0 mm/hr 0.00 in0.0 mm
03:30 PM 32.9°F0.5°C 29.2°F-1.6°C 86% 0.9 mph WNW1.4 kmh WNW 4.0 mph6.4 kmh 30.29 in1025.7 mb 0.00 in0.0 mm 0.00 in/hr0.0 mm/hr 0.00 in0.0 mm
03:40 PM 32.7°F0.4°C 29.0°F-1.7°C 86% 1.9 mph NE3.1 kmh NE 3.0 mph4.8 kmh 30.29 in1025.7 mb 0.00 in0.0 mm 0.00 in/hr0.0 mm/hr 0.00 in0.0 mm
03:50 PM 32.6°F0.3°C 28.9°F-1.7°C 86% 1.9 mph NW3.1 kmh NW 5.0 mph8.0 kmh 30.29 in1025.7 mb 0.00 in0.0 mm 0.00 in/hr0.0 mm/hr 0.00 in0.0 mm
04:00 PM 32.5°F0.3°C 28.8°F-1.8°C 86% 2.4 mph NW3.9 kmh NW 3.0 mph4.8 kmh 30.29 in1025.7 mb 0.00 in0.0 mm 0.00 in/hr0.0 mm/hr 0.00 in0.0 mm
04:10 PM 32.4°F0.2°C 29.0°F-1.7°C 87% 0.5 mph NW0.8 kmh NW 3.0 mph4.8 kmh 30.29 in1025.7 mb 0.00 in0.0 mm 0.00 in/hr0.0 mm/hr 0.00 in0.0 mm
04:20 PM 32.4°F0.2°C 28.9°F-1.7°C 87% 0.6 mph NE1.0 kmh NE 4.0 mph6.4 kmh 30.30 in1026.1 mb 0.00 in0.0 mm 0.00 in/hr0.0 mm/hr 0.00 in0.0 mm
04:30 PM 32.2°F0.1°C 28.8°F-1.8°C 87% 0.7 mph NW1.1 kmh NW 2.0 mph3.2 kmh 30.30 in1026.1 mb 0.00 in0.0 mm 0.00 in/hr0.0 mm/hr 0.00 in0.0 mm
04:40 PM 32.1°F0.1°C 28.9°F-1.7°C 88% 0.5 mph N0.8 kmh N 2.0 mph3.2 kmh 30.30 in1026.1 mb 0.00 in0.0 mm 0.00 in/hr0.0 mm/hr 0.00 in0.0 mm
04:50 PM 31.9°F-0.1°C 29.0°F-1.7°C 89% 0.3 mph NW0.5 kmh NW 2.0 mph3.2 kmh 30.30 in1026.1 mb 0.00 in0.0 mm 0.00 in/hr0.0 mm/hr 0.00 in0.0 mm
05:00 PM 31.7°F-0.2°C 29.1°F-1.6°C 90% 0.1 mph NW0.2 kmh NW 1.0 mph1.6 kmh 30.30 in1026.1 mb 0.00 in0.0 mm 0.00 in/hr0.0 mm/hr 0.00 in0.0 mm
05:10 PM 31.6°F-0.2°C 29.3°F-1.5°C 91% 0.7 mph N1.1 kmh N 2.0 mph3.2 kmh 30.30 in1026.1 mb 0.00 in0.0 mm 0.00 in/hr0.0 mm/hr 0.00 in0.0 mm
05:20 PM 31.3°F-0.4°C 29.2°F-1.6°C 92% 0.9 mph N1.4 kmh N 3.0 mph4.8 kmh 30.30 in1026.1 mb 0.00 in0.0 mm 0.00 in/hr0.0 mm/hr 0.00 in0.0 mm
05:30 PM 31.1°F-0.5°C 29.0°F-1.7°C 92% 0.1 mph NNE0.2 kmh NNE 1.0 mph1.6 kmh 30.30 in1026.1 mb 0.00 in0.0 mm 0.00 in/hr0.0 mm/hr 0.00 in0.0 mm
05:40 PM 30.9°F-0.6°C 29.1°F-1.6°C 93% Calm Calm 1.0 mph1.6 kmh 30.30 in1026.1 mb 0.00 in0.0 mm 0.00 in/hr0.0 mm/hr 0.00 in0.0 mm
05:50 PM 30.9°F-0.6°C 29.1°F-1.6°C 93% 0.8 mph NE1.3 kmh NE 2.0 mph3.2 kmh 30.31 in1026.4 mb 0.00 in0.0 mm 0.00 in/hr0.0 mm/hr 0.00 in0.0 mm
06:00 PM 30.8°F-0.7°C 29.0°F-1.7°C 93% 0.6 mph NE1.0 kmh NE 1.0 mph1.6 kmh 30.31 in1026.4 mb 0.00 in0.0 mm 0.00 in/hr0.0 mm/hr 0.00 in0.0 mm
06:10 PM 30.8°F-0.7°C 29.0°F-1.7°C 93% 0.3 mph N0.5 kmh N 1.0 mph1.6 kmh 30.31 in1026.4 mb 0.00 in0.0 mm 0.00 in/hr0.0 mm/hr 0.00 in0.0 mm
06:20 PM 30.8°F-0.7°C 29.1°F-1.6°C 93% 0.9 mph NW1.4 kmh NW 1.0 mph1.6 kmh 30.31 in1026.4 mb 0.00 in0.0 mm 0.00 in/hr0.0 mm/hr 0.00 in0.0 mm
06:30 PM 30.9°F-0.6°C 29.1°F-1.6°C 93% 0.1 mph NW0.2 kmh NW 1.0 mph1.6 kmh 30.32 in1026.8 mb 0.00 in0.0 mm 0.00 in/hr0.0 mm/hr 0.00 in0.0 mm
06:40 PM 30.8°F-0.7°C 29.0°F-1.7°C 93% 0.2 mph N0.3 kmh N 1.0 mph1.6 kmh 30.32 in1026.8 mb 0.00 in0.0 mm 0.00 in/hr0.0 mm/hr 0.00 in0.0 mm
06:50 PM 30.9°F-0.6°C 29.1°F-1.6°C 93% 0.2 mph NW0.3 kmh NW 1.0 mph1.6 kmh 30.33 in1027.1 mb 0.00 in0.0 mm 0.00 in/hr0.0 mm/hr 0.00 in0.0 mm
07:00 PM 31.0°F-0.6°C 29.2°F-1.6°C 93% 1.0 mph N1.6 kmh N 4.0 mph6.4 kmh 30.33 in1027.1 mb 0.00 in0.0 mm 0.00 in/hr0.0 mm/hr 0.00 in0.0 mm
07:10 PM 31.1°F-0.5°C 29.0°F-1.7°C 92% 0.6 mph NW1.0 kmh NW 1.0 mph1.6 kmh 30.33 in1027.1 mb 0.00 in0.0 mm 0.00 in/hr0.0 mm/hr 0.00 in0.0 mm
07:20 PM 31.1°F-0.5°C 29.1°F-1.6°C 92% Calm Calm 1.0 mph1.6 kmh 30.33 in1027.1 mb 0.00 in0.0 mm 0.00 in/hr0.0 mm/hr 0.00 in0.0 mm
07:30 PM 31.2°F-0.4°C 29.1°F-1.6°C 92% 0.7 mph N1.1 kmh N 1.0 mph1.6 kmh 30.33 in1027.1 mb 0.00 in0.0 mm 0.00 in/hr0.0 mm/hr 0.00 in0.0 mm
07:40 PM 31.1°F-0.5°C 29.1°F-1.6°C 92% 0.4 mph N0.6 kmh N 1.0 mph1.6 kmh 30.33 in1027.1 mb 0.00 in0.0 mm 0.00 in/hr0.0 mm/hr 0.00 in0.0 mm
07:50 PM 31.2°F-0.4°C 29.1°F-1.6°C 92% 0.5 mph NW0.8 kmh NW 1.0 mph1.6 kmh 30.33 in1027.1 mb 0.00 in0.0 mm 0.00 in/hr0.0 mm/hr 0.00 in0.0 mm
08:00 PM 31.2°F-0.4°C 29.1°F-1.6°C 92% 0.9 mph NW1.4 kmh NW 2.0 mph3.2 kmh 30.33 in1027.1 mb 0.00 in0.0 mm 0.00 in/hr0.0 mm/hr 0.00 in0.0 mm
08:10 PM 31.2°F-0.4°C 29.1°F-1.6°C 92% Calm Calm 1.0 mph1.6 kmh 30.33 in1027.1 mb 0.00 in0.0 mm 0.00 in/hr0.0 mm/hr 0.00 in0.0 mm
08:20 PM 31.2°F-0.4°C 29.1°F-1.6°C 92% 0.5 mph NNW0.8 kmh NNW 2.0 mph3.2 kmh 30.34 in1027.4 mb 0.00 in0.0 mm 0.00 in/hr0.0 mm/hr 0.00 in0.0 mm
08:30 PM 31.1°F-0.5°C 29.1°F-1.6°C 92% 0.4 mph NW0.6 kmh NW 1.0 mph1.6 kmh 30.34 in1027.4 mb 0.00 in0.0 mm 0.00 in/hr0.0 mm/hr 0.00 in0.0 mm
08:40 PM 31.2°F-0.4°C 29.1°F-1.6°C 92% 0.1 mph NW0.2 kmh NW 1.0 mph1.6 kmh 30.34 in1027.4 mb 0.00 in0.0 mm 0.00 in/hr0.0 mm/hr 0.00 in0.0 mm
08:50 PM 31.2°F-0.4°C 29.1°F-1.6°C 92% 0.2 mph WNW0.3 kmh WNW -- 30.34 in1027.4 mb 0.00 in0.0 mm 0.00 in/hr0.0 mm/hr 0.00 in0.0 mm
09:00 PM 31.0°F-0.6°C 29.0°F-1.7°C 92% 0.3 mph NW0.5 kmh NW 1.0 mph1.6 kmh 30.33 in1027.1 mb 0.00 in0.0 mm 0.00 in/hr0.0 mm/hr 0.00 in0.0 mm
09:10 PM 31.0°F-0.6°C 29.2°F-1.6°C 93% 0.1 mph NW0.2 kmh NW 1.0 mph1.6 kmh 30.33 in1027.1 mb 0.00 in0.0 mm 0.00 in/hr0.0 mm/hr 0.00 in0.0 mm
09:20 PM 31.1°F-0.5°C 29.3°F-1.5°C 93% 0.9 mph NW1.4 kmh NW 2.0 mph3.2 kmh 30.33 in1027.1 mb 0.00 in0.0 mm 0.00 in/hr0.0 mm/hr 0.00 in0.0 mm
09:30 PM 31.1°F-0.5°C 29.3°F-1.5°C 93% 0.2 mph NNE0.3 kmh NNE 2.0 mph3.2 kmh 30.33 in1027.1 mb 0.00 in0.0 mm 0.00 in/hr0.0 mm/hr 0.00 in0.0 mm
09:40 PM 31.0°F-0.6°C 29.2°F-1.6°C 93% 0.1 mph NNW0.2 kmh NNW 1.0 mph1.6 kmh 30.33 in1027.1 mb 0.00 in0.0 mm 0.00 in/hr0.0 mm/hr 0.00 in0.0 mm
09:50 PM 31.0°F-0.6°C 29.2°F-1.6°C 93% 0.4 mph NNW0.6 kmh NNW 1.0 mph1.6 kmh 30.33 in1027.1 mb 0.00 in0.0 mm 0.00 in/hr0.0 mm/hr 0.00 in0.0 mm
10:00 PM 31.0°F-0.6°C 29.2°F-1.6°C 93% 0.6 mph NW1.0 kmh NW 2.0 mph3.2 kmh 30.33 in1027.1 mb 0.00 in0.0 mm 0.00 in/hr0.0 mm/hr 0.00 in0.0 mm
10:10 PM 31.0°F-0.6°C 29.2°F-1.6°C 93% 0.2 mph NNE0.3 kmh NNE 1.0 mph1.6 kmh 30.33 in1027.1 mb 0.00 in0.0 mm 0.00 in/hr0.0 mm/hr 0.00 in0.0 mm
10:20 PM 31.0°F-0.6°C 29.2°F-1.6°C 93% 0.1 mph NNW0.2 kmh NNW 1.0 mph1.6 kmh 30.33 in1027.1 mb 0.00 in0.0 mm 0.00 in/hr0.0 mm/hr 0.00 in0.0 mm
10:30 PM 31.0°F-0.6°C 29.2°F-1.6°C 93% 0.1 mph NW0.2 kmh NW 1.0 mph1.6 kmh 30.33 in1027.1 mb 0.00 in0.0 mm 0.00 in/hr0.0 mm/hr 0.00 in0.0 mm
10:40 PM 31.1°F-0.5°C 29.3°F-1.5°C 93% Calm Calm 1.0 mph1.6 kmh 30.33 in1027.1 mb 0.00 in0.0 mm 0.00 in/hr0.0 mm/hr 0.00 in0.0 mm
10:50 PM 31.2°F-0.4°C 29.4°F-1.4°C 93% Calm Calm -- 30.34 in1027.4 mb 0.00 in0.0 mm 0.00 in/hr0.0 mm/hr 0.00 in0.0 mm
11:00 PM 31.2°F-0.4°C 29.4°F-1.4°C 93% 0.4 mph N0.6 kmh N 1.0 mph1.6 kmh 30.33 in1027.1 mb 0.00 in0.0 mm 0.00 in/hr0.0 mm/hr 0.00 in0.0 mm
11:10 PM 31.3°F-0.4°C 29.5°F-1.4°C 93% 0.1 mph NW0.2 kmh NW 1.0 mph1.6 kmh 30.33 in1027.1 mb 0.00 in0.0 mm 0.00 in/hr0.0 mm/hr 0.00 in0.0 mm
11:20 PM 31.3°F-0.4°C 29.5°F-1.4°C 93% 0.5 mph NNW0.8 kmh NNW 1.0 mph1.6 kmh 30.33 in1027.1 mb 0.00 in0.0 mm 0.00 in/hr0.0 mm/hr 0.00 in0.0 mm
11:30 PM 31.4°F-0.3°C 29.6°F-1.3°C 93% 0.4 mph NW0.6 kmh NW 1.0 mph1.6 kmh 30.33 in1027.1 mb 0.00 in0.0 mm 0.00 in/hr0.0 mm/hr 0.00 in0.0 mm
11:40 PM 31.5°F-0.3°C 29.7°F-1.3°C 93% Calm Calm 1.0 mph1.6 kmh 30.33 in1027.1 mb 0.00 in0.0 mm 0.00 in/hr0.0 mm/hr 0.00 in0.0 mm
11:50 PM 31.5°F-0.3°C 29.4°F-1.4°C 92% 1.1 mph NW1.8 kmh NW 2.0 mph3.2 kmh 30.33 in1027.1 mb 0.00 in0.0 mm 0.00 in/hr0.0 mm/hr 0.00 in0.0 mm